Weather at Double Eagle II Airport

Public forecast

Using degrees Fahrenheit for public forecast. Weather courtesy of forecast.io.

Current aviation weather report (METAR) for Double Eagle II Airport

Report is more than 2 hours old.

2024/02/23 23:50 (retrieved 3 hours ago)

KAEG 232350Z 33008KT 10SM CLR 11/M19 A3019

Closest aviation forecast (TAF) to Double Eagle II Airport

Closest forecast is Biggs Army Air Field (Fort Bliss), 199.0 nm (368.5 km) S.

2024/02/23 20:59 (retrieved 6 hours ago)

TAF KBIF 232000Z 2320/2502 02010G15KT FEW200 QNH3009INS BECMG 2400/2401 VRB06KT 9999 FEW180 QNH3008INS TX22/2423Z TN01/2414Z